Time;durP1;ratioP1;P1;durP2;ratioP2;P2;SDS_P1;SDS_P2;PMS_P1;PMS_P2;Temp;Humidity;BMP_temperature;BMP_pressure;BME280_temperature;BME280_humidity;BME280_pressure;Samples;Min_cycle;Max_cycle;Signal;HPM_P1;HPM_P2
2023/06/10 00:00:15;;;;;;;;;;;;;;;18.33;51.79;92384.97;2068395;69;20541;-74
2023/06/10 00:02:42;;;;;;;;;;;;;;;18.14;53.78;92372.31;2068560;69;20056;-74
2023/06/10 00:05:09;;;;;;;;;;;;;;;18.15;52.57;92384.47;2067343;69;20123;-74
2023/06/10 00:07:37;;;;;;;;;;;;;;;18.23;52.25;92381.81;2055795;70;20059;-73
2023/06/10 00:10:06;;;;;;;;;;;;;;;18.08;53.12;92386.41;2055564;69;20077;-73
2023/06/10 00:12:41;;;;;;;;;;;;;;;18.07;53.45;92384.97;2068713;69;20145;-75
2023/06/10 00:15:07;;;;;;;;;;;;;;;18.12;52.78;92383.66;2059376;69;20080;-75
2023/06/10 00:17:32;;;;;;;;;;;;;;;18.04;53.72;92377.75;2072239;69;20058;-75
2023/06/10 00:19:58;;;;;;;;;;;;;;;18.02;53.43;92389.09;2058862;69;20053;-76
2023/06/10 00:22:24;;;;;;;;;;;;;;;17.98;53.17;92375.47;2058916;69;20113;-76
2023/06/10 00:24:50;;;;;;;;;;;;;;;17.76;52.88;92386.19;2058872;69;20058;-75
2023/06/10 00:27:16;;;;;;;;;;;;;;;17.83;53.75;92381.44;2058714;69;20045;-75
2023/06/10 00:29:42;;;;;;;;;;;;;;;17.73;53.89;92379.75;2071658;69;20058;-75
2023/06/10 00:32:07;;;;;;;;;;;;;;;17.74;54.19;92383.31;2059012;69;20046;-74
2023/06/10 00:34:35;;;;;;;;;;;;;;;17.72;54.87;92383.94;2059081;69;20141;-74
2023/06/10 00:37:00;;;;;;;;;;;;;;;17.70;54.42;92375.34;2069106;69;20117;-73
2023/06/10 00:39:26;;;;;;;;;;;;;;;17.44;55.84;92380.97;2071969;69;20165;-74
2023/06/10 00:41:51;;;;;;;;;;;;;;;17.57;55.00;92376.38;2059018;69;20046;-73
2023/06/10 00:44:17;;;;;;;;;;;;;;;17.60;55.31;92380.75;2059080;69;20468;-73
2023/06/10 00:46:43;;;;;;;;;;;;;;;17.74;54.63;92389.00;2069243;69;20551;-74
2023/06/10 00:49:08;;;;;;;;;;;;;;;17.65;54.73;92379.47;2058913;69;20056;-74
2023/06/10 00:51:36;;;;;;;;;;;;;;;17.46;56.21;92386.72;2059020;69;20569;-75
2023/06/10 00:57:30;;;;;;;;;;;;;;;17.39;54.16;92392.91;2058948;69;20074;-73
2023/06/10 00:59:57;;;;;;;;;;;;;;;17.49;53.70;92387.50;2058935;69;20058;-74
2023/06/10 01:02:23;;;;;;;;;;;;;;;17.47;54.30;92388.19;2072005;69;20055;-72
2023/06/10 01:04:49;;;;;;;;;;;;;;;17.49;54.37;92387.50;2058607;69;20061;-75
2023/06/10 01:07:24;;;;;;;;;;;;;;;17.49;54.52;92379.69;2072009;69;20046;-74
2023/06/10 01:09:58;;;;;;;;;;;;;;;17.43;54.69;92382.38;2059324;69;20133;-76
2023/06/10 01:12:24;;;;;;;;;;;;;;;17.40;54.69;92372.31;2059392;69;20457;-74
2023/06/10 01:14:50;;;;;;;;;;;;;;;17.37;54.65;92382.19;2058941;69;20115;-74
2023/06/10 01:17:17;;;;;;;;;;;;;;;17.38;54.59;92375.09;2072024;69;20058;-75
2023/06/10 01:19:44;;;;;;;;;;;;;;;17.40;54.34;92371.59;2059512;69;20065;-75
2023/06/10 01:22:10;;;;;;;;;;;;;;;17.47;54.13;92371.09;2069771;69;20146;-76
2023/06/10 01:24:37;;;;;;;;;;;;;;;17.34;54.89;92374.25;2072208;69;20053;-75
2023/06/10 01:27:06;;;;;;;;;;;;;;;17.39;54.22;92376.53;2059507;69;20119;-74
2023/06/10 01:29:45;;;;;;;;;;;;;;;17.36;54.83;92386.41;2072329;69;20069;-75
2023/06/10 01:32:18;;;;;;;;;;;;;;;17.33;55.18;92382.06;2072543;69;20439;-74
2023/06/10 01:34:44;;;;;;;;;;;;;;;17.35;54.82;92378.53;2072779;69;20069;-76
2023/06/10 01:37:13;;;;;;;;;;;;;;;17.31;55.00;92384.09;2072455;69;20042;-74
2023/06/10 01:39:39;;;;;;;;;;;;;;;17.12;55.27;92385.66;2059495;69;20521;-75
2023/06/10 01:42:06;;;;;;;;;;;;;;;17.17;54.47;92376.59;2069809;69;20511;-75
2023/06/10 01:44:32;;;;;;;;;;;;;;;17.25;54.19;92376.84;2059385;69;20307;-75
2023/06/10 01:46:58;;;;;;;;;;;;;;;17.29;54.68;92379.09;2059365;69;20050;-74
2023/06/10 01:49:28;;;;;;;;;;;;;;;17.26;54.59;92383.97;2072562;69;20050;-75
2023/06/10 01:51:54;;;;;;;;;;;;;;;16.79;55.86;92378.22;2059518;69;20066;-76
2023/06/10 01:54:21;;;;;;;;;;;;;;;17.05;55.00;92384.75;2072339;69;20049;-76
2023/06/10 01:56:47;;;;;;;;;;;;;;;17.09;55.41;92393.41;2059468;69;20050;-75
2023/06/10 01:59:14;;;;;;;;;;;;;;;16.94;55.60;92394.31;2059559;69;20164;-75
2023/06/10 02:01:40;;;;;;;;;;;;;;;17.11;54.75;92381.38;2072736;69;20060;-75
2023/06/10 02:04:06;;;;;;;;;;;;;;;17.20;54.14;92394.44;2059798;69;20050;-74
2023/06/10 02:06:31;;;;;;;;;;;;;;;16.95;55.51;92392.94;2073126;69;20473;-75
2023/06/10 02:08:58;;;;;;;;;;;;;;;17.00;55.28;92378.19;2072676;69;20050;-75
2023/06/10 02:11:23;;;;;;;;;;;;;;;16.88;56.91;92377.09;2059702;69;20416;-73
2023/06/10 02:13:51;;;;;;;;;;;;;;;17.00;55.25;92371.78;2069522;69;20050;-74
2023/06/10 02:16:18;;;;;;;;;;;;;;;16.82;56.76;92376.91;2059530;69;20494;-75
2023/06/10 02:18:44;;;;;;;;;;;;;;;16.86;56.52;92374.16;2059571;69;20078;-75
2023/06/10 02:24:38;;;;;;;;;;;;;;;16.91;56.50;92387.88;2059533;69;20069;-74
2023/06/10 02:27:06;;;;;;;;;;;;;;;16.43;58.11;92379.13;2059478;69;20416;-73
2023/06/10 02:29:33;;;;;;;;;;;;;;;16.63;56.79;92387.63;2059340;69;20050;-74
2023/06/10 02:31:59;;;;;;;;;;;;;;;16.73;55.84;92382.31;2072477;69;20138;-74
2023/06/10 02:34:26;;;;;;;;;;;;;;;16.83;55.56;92387.59;2059394;69;20061;-75
2023/06/10 02:36:52;;;;;;;;;;;;;;;16.66;55.62;92391.97;2069850;69;20107;-73
2023/06/10 02:39:19;;;;;;;;;;;;;;;16.74;55.27;92388.72;2069921;69;20141;-75
2023/06/10 02:41:45;;;;;;;;;;;;;;;16.67;55.86;92390.59;2072595;69;20508;-75
2023/06/10 02:44:11;;;;;;;;;;;;;;;16.82;55.85;92397.50;2072094;69;20086;-75
2023/06/10 02:46:37;;;;;;;;;;;;;;;16.69;57.23;92395.63;2069773;69;20127;-75
2023/06/10 02:49:04;;;;;;;;;;;;;;;16.70;56.92;92397.81;2072423;69;20097;-75
2023/06/10 02:51:29;;;;;;;;;;;;;;;16.80;55.60;92402.41;2072384;69;20163;-75
2023/06/10 02:54:03;;;;;;;;;;;;;;;16.78;55.33;92405.91;2072505;69;20416;-75
2023/06/10 02:56:29;;;;;;;;;;;;;;;16.67;56.04;92404.78;2072590;69;20046;-76
2023/06/10 02:58:58;;;;;;;;;;;;;;;16.65;56.02;92404.00;2072480;69;20451;-76
2023/06/10 03:04:57;;;;;;;;;;;;;;;16.43;56.35;92396.19;2060365;69;20525;-75
2023/06/10 03:07:23;;;;;;;;;;;;;;;16.24;57.52;92403.34;2069993;69;20159;-75
2023/06/10 03:09:52;;;;;;;;;;;;;;;16.24;57.60;92399.78;2059337;69;20050;-75
2023/06/10 03:12:18;;;;;;;;;;;;;;;16.19;58.01;92398.91;2072484;69;20050;-75
2023/06/10 03:14:46;;;;;;;;;;;;;;;16.30;57.11;92399.97;2072468;69;20137;-76
2023/06/10 03:17:12;;;;;;;;;;;;;;;16.25;58.37;92401.94;2072412;69;20142;-75
2023/06/10 03:19:41;;;;;;;;;;;;;;;16.37;57.86;92398.09;2059319;69;20057;-74
2023/06/10 03:22:08;;;;;;;;;;;;;;;16.38;58.21;92405.94;2072598;69;20151;-75
2023/06/10 03:24:40;;;;;;;;;;;;;;;15.87;59.87;92409.81;2069891;69;20081;-76
2023/06/10 03:27:08;;;;;;;;;;;;;;;16.23;59.13;92416.09;2072577;69;20108;-75
2023/06/10 03:29:35;;;;;;;;;;;;;;;16.22;59.30;92405.41;2069995;69;20082;-75
2023/06/10 03:32:01;;;;;;;;;;;;;;;16.29;59.22;92400.66;2059632;69;20050;-75
2023/06/10 03:34:28;;;;;;;;;;;;;;;16.25;59.23;92404.78;2071886;69;20137;-75
2023/06/10 03:36:53;;;;;;;;;;;;;;;16.29;59.37;92400.66;2069396;69;20180;-76
2023/06/10 03:39:19;;;;;;;;;;;;;;;16.31;59.32;92398.63;2059234;69;20145;-76
2023/06/10 03:41:45;;;;;;;;;;;;;;;16.24;58.47;92400.50;2072582;69;20116;-76
2023/06/10 03:44:15;;;;;;;;;;;;;;;15.80;60.44;92402.47;2059251;69;20476;-76
2023/06/10 03:46:40;;;;;;;;;;;;;;;15.77;60.09;92403.06;2072368;69;20472;-75
2023/06/10 03:49:09;;;;;;;;;;;;;;;15.90;59.93;92404.97;2059718;69;20046;-75
2023/06/10 03:51:35;;;;;;;;;;;;;;;15.78;60.66;92404.50;2072563;69;20126;-75
2023/06/10 03:54:01;;;;;;;;;;;;;;;15.78;60.46;92404.50;2072347;69;20049;-74
2023/06/10 03:56:28;;;;;;;;;;;;;;;15.85;60.43;92401.25;2072027;69;20053;-75
2023/06/10 03:58:54;;;;;;;;;;;;;;;15.82;61.37;92405.38;2072558;69;20496;-75
2023/06/10 04:01:20;;;;;;;;;;;;;;;15.92;60.23;92405.03;2072648;69;20080;-75
2023/06/10 04:03:51;;;;;;;;;;;;;;;15.92;60.08;92410.69;2072620;69;20061;-75
2023/06/10 04:06:18;;;;;;;;;;;;;;;15.88;60.16;92410.56;2072679;69;20053;-76
2023/06/10 04:08:44;;;;;;;;;;;;;;;15.88;60.80;92410.56;2059880;69;20049;-75
2023/06/10 04:11:11;;;;;;;;;;;;;;;15.88;61.06;92407.72;2059693;69;20153;-75
2023/06/10 04:13:37;;;;;;;;;;;;;;;15.91;60.70;92406.41;2072339;69;20145;-75
2023/06/10 04:16:03;;;;;;;;;;;;;;;15.81;61.25;92409.63;2059244;69;20052;-75
2023/06/10 04:18:28;;;;;;;;;;;;;;;15.95;60.34;92412.25;2069526;69;20092;-74
2023/06/10 04:20:58;;;;;;;;;;;;;;;15.97;60.36;92424.38;2059324;69;20085;-75
2023/06/10 04:23:26;;;;;;;;;;;;;;;15.83;61.07;92418.19;2072493;69;20082;-75
2023/06/10 04:25:51;;;;;;;;;;;;;;;15.85;61.17;92414.69;2072363;69;20046;-75
2023/06/10 04:28:19;;;;;;;;;;;;;;;15.96;60.20;92408.03;2069642;69;20416;-75
2023/06/10 04:30:45;;;;;;;;;;;;;;;15.90;60.32;92411.38;2072104;69;20054;-74
2023/06/10 04:33:13;;;;;;;;;;;;;;;15.88;61.34;92414.13;2072266;69;20098;-75
2023/06/10 04:35:39;;;;;;;;;;;;;;;15.79;61.50;92418.03;2072083;69;20050;-75
2023/06/10 04:38:07;;;;;;;;;;;;;;;15.85;60.99;92423.97;2069864;69;20057;-74
2023/06/10 04:40:34;;;;;;;;;;;;;;;15.94;60.38;92424.97;2072569;69;20050;-74
2023/06/10 04:43:02;;;;;;;;;;;;;;;15.84;60.70;92425.31;2071923;69;20057;-74
2023/06/10 04:45:28;;;;;;;;;;;;;;;15.95;60.28;92430.00;2072235;69;20114;-74
2023/06/10 04:47:55;;;;;;;;;;;;;;;15.91;61.42;92431.97;2071932;69;20061;-76
2023/06/10 04:50:21;;;;;;;;;;;;;;;16.06;60.91;92433.22;2059485;69;20062;-75
2023/06/10 04:52:49;;;;;;;;;;;;;;;15.87;61.32;92437.50;2072739;69;20046;-75
2023/06/10 04:55:15;;;;;;;;;;;;;;;15.91;61.68;92435.53;2072267;69;20057;-75
2023/06/10 04:57:41;;;;;;;;;;;;;;;15.91;61.49;92440.47;2059640;69;20080;-75
2023/06/10 05:00:08;;;;;;;;;;;;;;;16.00;60.86;92436.56;2072662;69;20050;-75
2023/06/10 05:02:35;;;;;;;;;;;;;;;15.86;62.06;92439.59;2059651;69;20459;-76
2023/06/10 05:05:01;;;;;;;;;;;;;;;15.65;62.26;92438.09;2072466;69;20074;-75
2023/06/10 05:07:26;;;;;;;;;;;;;;;15.89;61.57;92431.88;2059703;69;20053;-76
2023/06/10 05:09:51;;;;;;;;;;;;;;;15.93;62.08;92444.09;2072238;69;20431;-75
2023/06/10 05:12:18;;;;;;;;;;;;;;;15.94;61.47;92442.00;2059514;69;20050;-75
2023/06/10 05:14:44;;;;;;;;;;;;;;;15.99;60.39;92438.66;2059559;69;20507;-76
2023/06/10 05:17:10;;;;;;;;;;;;;;;16.07;60.55;92446.72;2059585;69;20052;-75
2023/06/10 05:19:37;;;;;;;;;;;;;;;16.18;60.81;92445.00;2059403;69;20050;-76
2023/06/10 05:22:03;;;;;;;;;;;;;;;16.03;61.41;92438.06;2059421;69;20424;-75
2023/06/10 05:24:29;;;;;;;;;;;;;;;15.98;61.98;92448.53;2059648;69;20108;-74
2023/06/10 05:26:55;;;;;;;;;;;;;;;16.15;61.03;92435.69;2059681;69;20057;-74
2023/06/10 05:29:23;;;;;;;;;;;;;;;16.23;60.45;92438.81;2072665;69;20057;-75
2023/06/10 05:31:49;;;;;;;;;;;;;;;16.25;60.84;92441.72;2059580;69;20432;-76
2023/06/10 05:34:14;;;;;;;;;;;;;;;16.35;61.60;92441.34;2059483;69;20499;-75
2023/06/10 05:36:42;;;;;;;;;;;;;;;16.46;60.89;92439.59;2059452;69;20485;-75
2023/06/10 05:39:09;;;;;;;;;;;;;;;16.35;62.48;92441.34;2059424;69;20046;-77
2023/06/10 05:41:37;;;;;;;;;;;;;;;16.37;62.88;92446.38;2059632;69;20046;-76
2023/06/10 05:47:31;;;;;;;;;;;;;;;16.39;61.48;92440.75;2059962;69;20049;-76
2023/06/10 05:49:58;;;;;;;;;;;;;;;16.42;61.29;92439.47;2059784;69;20062;-75
2023/06/10 05:52:25;;;;;;;;;;;;;;;16.44;61.59;92445.19;2059569;69;20070;-76
2023/06/10 05:54:51;;;;;;;;;;;;;;;16.51;61.25;92438.34;2059415;69;20042;-75
2023/06/10 05:57:17;;;;;;;;;;;;;;;16.48;61.04;92433.97;2059542;69;20207;-76
2023/06/10 05:59:43;;;;;;;;;;;;;;;16.44;61.50;92436.69;2059573;69;20049;-74
2023/06/10 06:02:09;;;;;;;;;;;;;;;16.47;62.16;92441.06;2059599;69;20057;-76
2023/06/10 06:04:36;;;;;;;;;;;;;;;16.67;61.29;92432.50;2059464;69;20100;-75
2023/06/10 06:07:04;;;;;;;;;;;;;;;16.64;61.02;92439.50;2059288;69;20038;-76
2023/06/10 06:09:34;;;;;;;;;;;;;;;16.73;61.60;92436.31;2059186;69;20061;-76
2023/06/10 06:12:00;;;;;;;;;;;;;;;16.79;60.79;92432.22;2059560;69;20482;-75
2023/06/10 06:14:30;;;;;;;;;;;;;;;16.80;60.77;92428.69;2059577;69;20081;-77
2023/06/10 06:16:56;;;;;;;;;;;;;;;16.82;60.57;92425.94;2072533;69;20115;-76
2023/06/10 06:19:22;;;;;;;;;;;;;;;16.97;60.85;92424.28;2072044;69;20054;-76
2023/06/10 06:21:48;;;;;;;;;;;;;;;17.16;60.81;92420.63;2059256;69;20054;-76
2023/06/10 06:24:15;;;;;;;;;;;;;;;17.33;59.20;92421.16;2059875;69;20057;-76
2023/06/10 06:26:43;;;;;;;;;;;;;;;17.37;60.32;92429.84;2058929;69;20092;-76
2023/06/10 06:29:09;;;;;;;;;;;;;;;17.51;59.88;92433.13;2058940;69;20082;-76
2023/06/10 06:31:34;;;;;;;;;;;;;;;17.65;60.48;92433.53;2059151;69;20046;-76
2023/06/10 06:34:00;;;;;;;;;;;;;;;17.78;60.19;92431.84;2059278;69;20050;-77
2023/06/10 06:36:26;;;;;;;;;;;;;;;17.72;59.24;92434.44;2059452;69;20050;-77
2023/06/10 06:38:52;;;;;;;;;;;;;;;17.92;58.86;92426.56;2072262;69;20145;-77
2023/06/10 06:41:18;;;;;;;;;;;;;;;18.02;58.75;92434.66;2069149;69;20057;-76
2023/06/10 06:43:43;;;;;;;;;;;;;;;17.97;58.82;92428.13;2072129;69;20069;-77
2023/06/10 06:46:22;;;;;;;;;;;;;;;18.13;57.54;92421.44;2059034;69;20058;-76
2023/06/10 06:48:49;;;;;;;;;;;;;;;18.37;57.05;92412.81;2059209;69;20477;-74
2023/06/10 06:54:42;;;;;;;;;;;;;;;18.54;56.46;92409.75;2059122;69;20481;-75
2023/06/10 06:57:08;;;;;;;;;;;;;;;18.67;56.60;92413.66;2072216;69;20042;-74
2023/06/10 06:59:33;;;;;;;;;;;;;;;18.68;55.76;92417.94;2072094;69;20070;-75
2023/06/10 07:02:00;;;;;;;;;;;;;;;18.82;55.80;92405.50;2059099;69;20133;-77
2023/06/10 07:04:26;;;;;;;;;;;;;;;18.97;56.98;92413.03;2059125;69;20204;-76
2023/06/10 07:06:52;;;;;;;;;;;;;;;19.02;57.07;92409.59;2059576;69;20114;-75
2023/06/10 07:09:17;;;;;;;;;;;;;;;19.13;55.72;92418.41;2059469;69;20066;-75
2023/06/10 07:11:43;;;;;;;;;;;;;;;19.12;56.22;92414.09;2069368;69;20042;-75
2023/06/10 07:14:09;;;;;;;;;;;;;;;19.24;56.91;92406.56;2072166;69;20128;-74
2023/06/10 07:16:34;;;;;;;;;;;;;;;19.24;58.27;92397.25;2059640;69;20057;-75
2023/06/10 07:19:00;;;;;;;;;;;;;;;19.37;57.17;92399.00;2059573;69;20090;-77
2023/06/10 07:21:25;;;;;;;;;;;;;;;19.45;57.08;92399.19;2059466;69;20038;-76
2023/06/10 07:23:53;;;;;;;;;;;;;;;19.63;56.07;92401.03;2059534;69;20050;-76
2023/06/10 07:26:19;;;;;;;;;;;;;;;19.70;54.49;92399.75;2059444;69;20030;-75
2023/06/10 07:28:45;;;;;;;;;;;;;;;19.60;56.46;92402.38;2059486;69;20601;-77
2023/06/10 07:31:11;;;;;;;;;;;;;;;19.80;56.13;92397.88;2058900;69;20054;-76
2023/06/10 07:33:38;;;;;;;;;;;;;;;19.83;51.80;92395.75;2059547;69;20050;-75
2023/06/10 07:36:04;;;;;;;;;;;;;;;19.80;52.85;92392.16;2059317;69;20065;-76
2023/06/10 07:38:30;;;;;;;;;;;;;;;19.84;50.42;92390.78;2059261;69;20065;-74
2023/06/10 07:40:57;;;;;;;;;;;;;;;19.63;49.72;92398.19;2059315;69;20061;-75
2023/06/10 07:43:22;;;;;;;;;;;;;;;19.64;50.76;92386.06;2059642;69;20050;-76
2023/06/10 07:45:48;;;;;;;;;;;;;;;19.97;49.50;92384.63;2059671;69;20046;-76
2023/06/10 07:48:13;;;;;;;;;;;;;;;20.14;50.26;92382.84;2070647;69;20073;-75
2023/06/10 07:50:40;;;;;;;;;;;;;;;20.17;49.94;92381.50;2059321;69;20089;-76
2023/06/10 07:53:05;;;;;;;;;;;;;;;20.40;49.63;92379.06;2072369;69;20054;-77
2023/06/10 07:55:31;;;;;;;;;;;;;;;20.65;52.05;92368.84;2072382;69;20493;-76
2023/06/10 07:57:56;;;;;;;;;;;;;;;20.86;52.95;92376.38;2059291;69;20050;-76
2023/06/10 08:00:22;;;;;;;;;;;;;;;20.67;48.68;92368.88;2072317;69;20061;-76
2023/06/10 08:02:49;;;;;;;;;;;;;;;20.90;46.87;92370.72;2072267;69;20584;-76
2023/06/10 08:05:15;;;;;;;;;;;;;;;20.99;46.44;92363.72;2062495;69;20080;-76
2023/06/10 08:07:40;;;;;;;;;;;;;;;21.13;46.41;92365.38;2072630;69;20116;-76
2023/06/10 08:10:06;;;;;;;;;;;;;;;21.45;46.96;92365.91;2072221;69;20049;-76
2023/06/10 08:12:32;;;;;;;;;;;;;;;21.34;45.88;92364.28;2072214;69;20077;-76
2023/06/10 08:14:58;;;;;;;;;;;;;;;21.82;45.63;92354.97;2072088;69;20049;-77
2023/06/10 08:17:24;;;;;;;;;;;;;;;21.81;44.23;92356.41;2072418;69;20208;-77
2023/06/10 08:19:49;;;;;;;;;;;;;;;21.97;45.07;92350.16;2072133;69;20111;-77
2023/06/10 08:22:15;;;;;;;;;;;;;;;22.60;45.68;92355.94;2072310;69;20052;-77
2023/06/10 08:24:40;;;;;;;;;;;;;;;22.41;43.31;92358.59;2072408;69;20051;-77
2023/06/10 08:27:06;;;;;;;;;;;;;;;22.86;42.83;92353.31;2069096;69;20056;-77
2023/06/10 08:29:32;;;;;;;;;;;;;;;23.10;44.20;92347.13;2072410;69;20060;-76
2023/06/10 08:31:58;;;;;;;;;;;;;;;23.82;43.75;92348.38;2072433;69;20396;-76
2023/06/10 08:34:23;;;;;;;;;;;;;;;23.96;42.23;92342.72;2072042;69;20163;-77
2023/06/10 08:36:54;;;;;;;;;;;;;;;24.31;42.12;92343.59;2072222;69;20079;-76
2023/06/10 08:39:22;;;;;;;;;;;;;;;24.16;40.31;92341.38;2072423;69;20037;-76
2023/06/10 08:41:57;;;;;;;;;;;;;;;24.94;40.97;92333.72;2072185;69;20084;-76
2023/06/10 08:44:28;;;;;;;;;;;;;;;24.75;39.05;92339.44;2071935;69;20119;-77
2023/06/10 08:46:55;;;;;;;;;;;;;;;25.10;39.49;92330.88;2068930;69;20079;-75
2023/06/10 08:49:23;;;;;;;;;;;;;;;25.31;39.31;92328.72;2072166;69;20040;-78
2023/06/10 08:51:56;;;;;;;;;;;;;;;25.56;38.28;92327.25;2072094;69;20059;-78
2023/06/10 08:54:25;;;;;;;;;;;;;;;25.45;38.48;92320.06;2072064;69;20045;-76
2023/06/10 08:56:51;;;;;;;;;;;;;;;26.69;38.54;92324.09;2068940;69;20122;-79
2023/06/10 08:59:17;;;;;;;;;;;;;;;27.12;37.57;92315.88;2072065;69;20107;-77
2023/06/10 09:01:47;;;;;;;;;;;;;;;27.03;36.72;92311.59;2071963;69;20052;-77
2023/06/10 09:04:12;;;;;;;;;;;;;;;27.49;37.11;92316.34;2072879;69;20048;-77
2023/06/10 09:06:38;;;;;;;;;;;;;;;27.01;36.30;92318.13;2075421;69;20469;-77
2023/06/10 09:09:05;;;;;;;;;;;;;;;27.38;37.12;92312.09;2075350;69;20079;-78
2023/06/10 09:11:31;;;;;;;;;;;;;;;27.39;37.24;92318.59;2071852;69;20048;-77
2023/06/10 09:13:56;;;;;;;;;;;;;;;27.70;36.17;92313.25;2075339;69;20072;-77
2023/06/10 09:16:23;;;;;;;;;;;;;;;27.85;35.89;92311.69;2071949;69;20056;-77
2023/06/10 09:18:48;;;;;;;;;;;;;;;28.54;36.91;92313.81;2072458;69;20143;-78
2023/06/10 09:21:13;;;;;;;;;;;;;;;28.51;35.61;92312.44;2072291;69;20167;-79
2023/06/10 09:23:39;;;;;;;;;;;;;;;29.13;35.67;92315.22;2075523;69;20451;-77
2023/06/10 09:26:09;;;;;;;;;;;;;;;29.36;36.28;92306.91;2075667;69;20051;-77
2023/06/10 09:28:35;;;;;;;;;;;;;;;29.33;35.57;92312.03;2075440;69;20068;-76
2023/06/10 09:31:05;;;;;;;;;;;;;;;29.07;33.92;92300.84;2075278;69;20056;-77
2023/06/10 09:33:30;;;;;;;;;;;;;;;28.85;34.56;92310.53;2069097;69;20490;-77
2023/06/10 09:36:00;;;;;;;;;;;;;;;28.94;34.05;92306.06;2075448;69;20100;-78
2023/06/10 09:38:29;;;;;;;;;;;;;;;29.69;33.33;92297.69;2075825;69;20136;-80
2023/06/10 09:40:56;;;;;;;;;;;;;;;29.36;31.77;92292.41;2072455;69;20100;-77
2023/06/10 09:43:22;;;;;;;;;;;;;;;30.50;31.88;92292.56;2075913;69;20056;-78
2023/06/10 09:45:48;;;;;;;;;;;;;;;29.90;29.96;92298.78;2075851;69;20118;-79
2023/06/10 09:48:13;;;;;;;;;;;;;;;30.88;29.58;92291.06;2075701;69;20053;-79
2023/06/10 09:50:43;;;;;;;;;;;;;;;31.14;29.22;92292.66;2075741;69;20052;-79
2023/06/10 09:53:09;;;;;;;;;;;;;;;30.98;27.83;92290.16;2075867;69;20052;-79
2023/06/10 09:55:38;;;;;;;;;;;;;;;31.03;26.84;92300.91;2075680;69;20071;-79
2023/06/10 09:58:04;;;;;;;;;;;;;;;31.44;27.25;92293.47;2072311;69;20172;-77
2023/06/10 10:00:31;;;;;;;;;;;;;;;30.84;27.89;92279.53;2075544;69;20048;-77
2023/06/10 10:02:57;;;;;;;;;;;;;;;32.12;28.35;92288.13;2075573;69;20048;-78
2023/06/10 10:05:23;;;;;;;;;;;;;;;32.19;27.13;92290.84;2075697;69;20541;-77
2023/06/10 10:07:49;;;;;;;;;;;;;;;32.22;25.99;92286.41;2069431;69;20052;-77
2023/06/10 10:10:15;;;;;;;;;;;;;;;32.96;25.54;92288.72;2075489;69;20083;-77
2023/06/10 10:13:06;;;;;;;;;;;;;;;32.78;25.60;92281.19;2074854;69;20059;-76
2023/06/10 10:15:59;;;;;;;;;;;;;;;34.10;24.54;92290.94;2074136;69;20110;-76
2023/06/10 10:18:59;;;;;;;;;;;;;;;33.24;22.76;92275.44;2074161;69;20219;-76
2023/06/10 10:21:53;;;;;;;;;;;;;;;34.44;23.41;92278.81;2074989;69;20479;-76
2023/06/10 10:24:49;;;;;;;;;;;;;;;33.97;21.62;92274.59;2075174;69;20059;-76
2023/06/10 10:30:24;;;;;;;;;;;;;;;35.17;21.29;92267.34;2060023;64;20081;-77
2023/06/10 10:32:52;;;;;;;;;;;;;;;34.50;21.04;92261.81;2058092;69;20443;-77
2023/06/10 10:35:22;;;;;;;;;;;;;;;35.34;19.86;92256.44;2057528;69;20056;-76
2023/06/10 10:37:49;;;;;;;;;;;;;;;35.72;20.08;92264.47;2055580;69;20431;-77
2023/06/10 10:40:15;;;;;;;;;;;;;;;37.17;19.11;92276.50;2058531;69;20065;-77
2023/06/10 10:42:42;;;;;;;;;;;;;;;36.55;18.13;92269.75;2058745;69;20515;-76
2023/06/10 10:45:08;;;;;;;;;;;;;;;34.68;20.08;92257.47;2058102;69;20057;-77
2023/06/10 10:47:35;;;;;;;;;;;;;;;37.93;16.68;92264.13;2058019;69;20120;-76
2023/06/10 10:50:01;;;;;;;;;;;;;;;38.80;15.92;92268.50;2058081;69;20046;-76
2023/06/10 10:52:46;;;;;;;;;;;;;;;36.29;17.86;92262.06;2059204;69;20064;-76
2023/06/10 10:55:14;;;;;;;;;;;;;;;33.79;19.63;92249.63;2057793;69;20184;-75
2023/06/10 10:57:40;;;;;;;;;;;;;;;34.84;19.25;92250.31;2058639;69;20132;-77
2023/06/10 11:00:06;;;;;;;;;;;;;;;33.73;19.66;92246.94;2058332;69;20443;-78
2023/06/10 11:02:31;;;;;;;;;;;;;;;34.71;21.68;92246.44;2055423;69;20519;-76
2023/06/10 11:04:57;;;;;;;;;;;;;;;39.23;16.62;92256.69;2059973;69;20175;-76
2023/06/10 11:07:24;;;;;;;;;;;;;;;40.10;15.82;92251.06;2059862;69;20058;-78
2023/06/10 11:09:59;;;;;;;;;;;;;;;39.18;16.14;92261.34;2059510;69;20540;-78
2023/06/10 11:12:25;;;;;;;;;;;;;;;43.20;13.94;92266.00;2057957;69;20520;-76
2023/06/10 11:14:54;;;;;;;;;;;;;;;39.30;15.02;92255.50;2057978;69;20054;-75
2023/06/10 11:17:22;;;;;;;;;;;;;;;41.17;15.08;92254.25;2058268;69;20054;-76
2023/06/10 11:19:47;;;;;;;;;;;;;;;45.68;12.98;92261.50;2060058;69;20141;-77
2023/06/10 11:22:17;;;;;;;;;;;;;;;44.36;12.73;92264.25;2061310;69;20497;-75
2023/06/10 11:24:47;;;;;;;;;;;;;;;42.43;13.58;92260.88;2059022;69;20062;-76
2023/06/10 11:27:17;;;;;;;;;;;;;;;40.51;15.71;92243.47;2058430;69;20054;-76
2023/06/10 11:30:02;;;;;;;;;;;;;;;38.62;16.12;92242.97;2058514;69;20073;-77
2023/06/10 11:32:34;;;;;;;;;;;;;;;42.16;15.05;92249.41;2059044;69;20058;-77
2023/06/10 11:35:03;;;;;;;;;;;;;;;44.37;12.79;92256.06;2061762;69;20569;-78
2023/06/10 11:37:28;;;;;;;;;;;;;;;44.26;12.36;92256.09;2060940;69;20058;-77
2023/06/10 11:39:54;;;;;;;;;;;;;;;38.57;17.10;92244.69;2058118;69;20049;-78
2023/06/10 11:42:20;;;;;;;;;;;;;;;41.73;15.93;92244.00;2061810;69;20573;-78
2023/06/10 11:44:50;;;;;;;;;;;;;;;44.83;14.09;92245.88;2061969;69;20058;-78
2023/06/10 11:47:15;;;;;;;;;;;;;;;38.15;16.95;92233.63;2060729;69;20058;-78
2023/06/10 11:49:40;;;;;;;;;;;;;;;41.47;14.42;92243.50;2061219;69;20054;-78
2023/06/10 11:52:06;;;;;;;;;;;;;;;42.74;14.66;92238.09;2061750;69;20804;-78
2023/06/10 11:54:31;;;;;;;;;;;;;;;36.81;17.53;92229.03;2062030;69;20077;-78
2023/06/10 11:56:58;;;;;;;;;;;;;;;36.19;17.77;92224.44;2057550;69;20065;-77
2023/06/10 11:59:26;;;;;;;;;;;;;;;34.45;20.38;92219.56;2060314;69;20093;-78
2023/06/10 12:01:52;;;;;;;;;;;;;;;33.19;20.82;92207.09;2058307;69;20085;-78
2023/06/10 12:04:21;;;;;;;;;;;;;;;33.58;21.55;92217.50;2058505;69;20174;-77
2023/06/10 12:06:47;;;;;;;;;;;;;;;32.31;22.34;92214.81;2058542;69;20056;-80
2023/06/10 12:09:14;;;;;;;;;;;;;;;31.70;22.92;92213.53;2058543;69;20125;-79
2023/06/10 12:11:39;;;;;;;;;;;;;;;31.85;22.47;92206.59;2061173;69;20078;-78
2023/06/10 12:14:05;;;;;;;;;;;;;;;33.92;21.69;92203.22;2061881;69;20146;-79
2023/06/10 12:16:31;;;;;;;;;;;;;;;34.27;21.24;92202.72;2058686;69;20165;-76
2023/06/10 12:19:06;;;;;;;;;;;;;;;34.56;21.10;92188.53;2061951;69;20118;-78
2023/06/10 12:21:32;;;;;;;;;;;;;;;33.84;21.13;92195.47;2058325;69;20154;-77
2023/06/10 12:24:02;;;;;;;;;;;;;;;32.85;21.33;92197.94;2058182;69;20049;-77
2023/06/10 12:26:36;;;;;;;;;;;;;;;32.40;22.07;92194.94;2061606;69;20144;-77
2023/06/10 12:29:02;;;;;;;;;;;;;;;31.66;22.94;92199.09;2057898;69;20054;-77
2023/06/10 12:31:28;;;;;;;;;;;;;;;31.65;23.01;92192.56;2061257;69;20053;-77
2023/06/10 12:34:09;;;;;;;;;;;;;;;31.15;23.64;92154.56;2061980;69;20101;-76
2023/06/10 12:36:35;;;;;;;;;;;;;;;30.46;24.59;92174.31;2062422;69;20495;-76
2023/06/10 12:39:03;;;;;;;;;;;;;;;31.30;24.88;92166.59;2061844;69;20045;-77
2023/06/10 12:41:29;;;;;;;;;;;;;;;30.01;24.75;92160.00;2061722;69;20186;-77
2023/06/10 12:43:54;;;;;;;;;;;;;;;29.93;24.71;92171.81;2061871;69;20473;-77
2023/06/10 12:46:20;;;;;;;;;;;;;;;30.66;23.47;92175.34;2061611;69;20090;-76
2023/06/10 12:48:51;;;;;;;;;;;;;;;30.72;24.66;92169.41;2062058;69;20135;-77
2023/06/10 12:51:18;;;;;;;;;;;;;;;30.46;24.29;92174.31;2061865;69;20057;-77
2023/06/10 12:53:44;;;;;;;;;;;;;;;29.28;24.98;92186.03;2061731;69;20503;-77
2023/06/10 12:56:09;;;;;;;;;;;;;;;29.50;25.74;92178.38;2058513;69;20145;-77
2023/06/10 12:58:35;;;;;;;;;;;;;;;30.08;24.81;92178.75;2061698;69;20145;-77
2023/06/10 13:01:00;;;;;;;;;;;;;;;31.18;24.53;92185.00;2061834;69;20580;-76
2023/06/10 13:03:26;;;;;;;;;;;;;;;30.85;24.90;92174.19;2061971;69;20061;-76
2023/06/10 13:05:51;;;;;;;;;;;;;;;31.60;24.28;92170.88;2061879;69;20074;-77
2023/06/10 13:08:17;;;;;;;;;;;;;;;29.98;25.67;92173.84;2061667;69;20053;-77